Time;durP1;ratioP1;P1;durP2;ratioP2;P2;SDS_P1;SDS_P2;PMS_P1;PMS_P2;Temp;Humidity;BMP_temperature;BMP_pressure;BME280_temperature;BME280_humidity;BME280_pressure;Samples;Min_cycle;Max_cycle;Signal;HPM_P1;HPM_P2
2023/02/16 00:01:31;;;;;;;5.70;2.70;;;;;;;-1.98;62.35;101265.06;105758;1255;64621;-75
2023/02/16 00:03:57;;;;;;;5.50;2.70;;;;;;;-2.03;62.41;101264.61;105633;1255;60484;-75
2023/02/16 00:06:25;;;;;;;6.20;2.90;;;;;;;-2.08;62.48;101260.70;105855;1254;60482;-76
2023/02/16 00:08:52;;;;;;;5.80;3.30;;;;;;;-2.12;62.54;101262.84;105691;1257;66399;-75
2023/02/16 00:14:14;;;;;;;6.70;3.10;;;;;;;-2.22;62.71;101269.86;105667;1255;65739;-75
2023/02/16 00:16:41;;;;;;;5.30;3.00;;;;;;;-2.28;62.83;101271.14;105683;1260;62326;-76
2023/02/16 00:19:21;;;;;;;6.80;3.30;;;;;;;-2.33;62.98;101270.52;105606;1255;60483;-76
2023/02/16 00:21:49;;;;;;;4.10;2.80;;;;;;;-2.37;63.02;101274.02;105687;1260;66672;-75
2023/02/16 00:24:16;;;;;;;7.80;3.40;;;;;;;-2.43;63.04;101275.11;105826;1254;60439;-75
2023/02/16 00:26:44;;;;;;;6.20;3.30;;;;;;;-2.48;63.17;101273.11;105638;1260;65286;-75
2023/02/16 00:29:25;;;;;;;6.60;3.00;;;;;;;-2.51;63.32;101277.63;105660;1253;60436;-76
2023/02/16 00:31:55;;;;;;;6.80;3.00;;;;;;;-2.55;63.51;101276.81;105607;1269;60434;-76
2023/02/16 00:34:24;;;;;;;6.80;2.90;;;;;;;-2.59;63.71;101277.91;105735;1255;65649;-75
2023/02/16 00:36:53;;;;;;;6.90;3.50;;;;;;;-2.63;63.83;101280.33;105670;1254;60539;-76
2023/02/16 00:39:23;;;;;;;7.70;3.60;;;;;;;-2.66;63.91;101280.55;105673;1258;64709;-76
2023/02/16 00:42:14;;;;;;;5.80;3.30;;;;;;;-2.70;64.03;101277.14;105733;1257;60463;-75
2023/02/16 00:44:43;;;;;;;5.50;3.40;;;;;;;-2.76;64.14;101273.76;105748;1254;60586;-76
2023/02/16 00:47:36;;;;;;;7.80;3.70;;;;;;;-2.81;64.28;101272.25;105494;1260;65744;-76
2023/02/16 00:50:17;;;;;;;6.20;3.60;;;;;;;-2.86;64.32;101273.18;105492;1261;60450;-76
2023/02/16 00:52:46;;;;;;;6.60;3.40;;;;;;;-2.91;64.30;101273.90;105796;1259;64555;-75
2023/02/16 00:55:15;;;;;;;9.30;3.80;;;;;;;-2.91;64.37;101274.94;105876;1257;60535;-74
2023/02/16 00:58:04;;;;;;;6.60;3.30;;;;;;;-2.94;64.45;101277.73;105742;1255;60412;-75
2023/02/16 01:00:34;;;;;;;6.80;3.50;;;;;;;-2.97;64.61;101278.96;105614;1260;65239;-75
2023/02/16 01:03:06;;;;;;;5.70;3.40;;;;;;;-2.96;64.60;101277.92;105607;1254;60402;-74
2023/02/16 01:05:35;;;;;;;6.10;3.60;;;;;;;-2.99;64.73;101275.88;105725;1257;65239;-75
2023/02/16 01:11:08;;;;;;;7.80;4.30;;;;;;;-3.12;65.04;101279.61;105598;1254;60464;-76
2023/02/16 01:13:45;;;;;;;10.90;4.90;;;;;;;-3.15;65.13;101279.48;105589;1254;66756;-74
2023/02/16 01:16:21;;;;;;;8.00;4.20;;;;;;;-3.19;65.15;101276.57;105728;1255;60521;-75
2023/02/16 01:18:48;;;;;;;7.30;4.00;;;;;;;-3.19;65.06;101279.33;105631;1255;65888;-75
2023/02/16 01:21:15;;;;;;;9.10;4.20;;;;;;;-3.20;65.13;101278.64;105746;1254;60357;-79
2023/02/16 01:23:42;;;;;;;8.60;3.90;;;;;;;-3.22;65.16;101280.39;105913;1254;60636;-74
2023/02/16 01:26:15;;;;;;;9.20;3.90;;;;;;;-3.26;65.22;101279.74;107804;1256;66590;-74
2023/02/16 01:28:43;;;;;;;7.70;4.30;;;;;;;-3.30;65.32;101280.64;107484;1260;60473;-75
2023/02/16 01:31:11;;;;;;;11.20;4.20;;;;;;;-3.33;65.38;101280.83;105767;1254;65353;-76
2023/02/16 01:33:40;;;;;;;8.90;4.20;;;;;;;-3.34;65.54;101286.52;105693;1256;60400;-79
2023/02/16 01:36:32;;;;;;;8.00;4.20;;;;;;;-3.36;65.72;101286.02;105772;1257;60434;-78
2023/02/16 01:38:59;;;;;;;7.70;4.10;;;;;;;-3.37;65.78;101287.41;105868;1257;65581;-74
2023/02/16 01:41:57;;;;;;;7.70;4.30;;;;;;;-3.39;65.96;101286.73;105617;1260;60431;-75
2023/02/16 01:44:29;;;;;;;8.20;4.70;;;;;;;-3.41;66.02;101287.95;105796;1258;65331;-74
2023/02/16 01:47:04;;;;;;;9.20;4.60;;;;;;;-3.44;66.05;101290.73;105154;1254;261684;-75
2023/02/16 01:49:33;;;;;;;7.00;4.10;;;;;;;-3.47;66.24;101292.13;105612;1256;60471;-75
2023/02/16 01:52:31;;;;;;;7.80;3.90;;;;;;;-3.49;66.28;101292.14;105755;1254;65855;-72
2023/02/16 01:55:08;;;;;;;6.10;3.70;;;;;;;-3.52;66.28;101294.58;105396;1260;60474;-71
2023/02/16 01:57:47;;;;;;;6.40;3.90;;;;;;;-3.54;66.23;101288.39;105597;1260;65565;-70
2023/02/16 02:00:28;;;;;;;7.50;3.90;;;;;;;-3.56;66.30;101289.96;105796;1254;60497;-70
2023/02/16 02:06:00;;;;;;;8.30;4.60;;;;;;;-3.59;66.50;101294.44;105370;1260;66934;-70
2023/02/16 02:08:52;;;;;;;10.60;4.90;;;;;;;-3.61;66.52;101297.39;105605;1260;60539;-70
2023/02/16 02:11:33;;;;;;;7.80;4.80;;;;;;;-3.64;66.65;101298.27;105198;1258;65550;-69
2023/02/16 02:14:18;;;;;;;9.20;4.30;;;;;;;-3.66;66.76;101294.85;105719;1254;60375;-69
2023/02/16 02:16:58;;;;;;;;;;;;;;;-3.69;66.89;101293.99;105632;1254;60452;-69
2023/02/16 02:19:27;;;;;;;8.70;5.10;;;;;;;-3.73;66.86;101297.13;105382;1260;65714;-69
2023/02/16 02:24:57;;;;;;;9.30;6.10;;;;;;;-3.78;66.91;101307.64;105199;1254;65300;-70
2023/02/16 02:27:25;;;;;;;10.10;5.70;;;;;;;-3.79;66.99;101308.34;105309;1254;60457;-70
2023/02/16 02:30:07;;;;;;;8.70;5.60;;;;;;;-3.81;66.96;101308.69;105536;1260;60534;-72
2023/02/16 02:33:09;;;;;;;9.80;6.00;;;;;;;-3.84;66.99;101309.59;105591;1260;66717;-70
2023/02/16 02:35:50;;;;;;;10.80;5.90;;;;;;;-3.87;67.05;101310.61;105595;1254;60641;-69
2023/02/16 02:38:39;;;;;;;14.30;6.70;;;;;;;-3.89;67.11;101307.36;105563;1258;65373;-69
2023/02/16 02:44:23;;;;;;;13.00;7.00;;;;;;;-3.92;67.20;101306.70;105881;1254;60546;-70
2023/02/16 02:46:51;;;;;;;14.60;8.30;;;;;;;-3.93;67.33;101310.67;105473;1259;66546;-77
2023/02/16 02:49:19;;;;;;;14.70;8.60;;;;;;;-3.95;67.32;101311.01;105490;1260;60433;-70
2023/02/16 02:51:46;;;;;;;20.40;10.50;;;;;;;-3.98;67.37;101311.88;105451;1256;65572;-70
2023/02/16 03:03:02;;;;;;;21.90;11.00;;;;;;;-4.12;67.43;101309.71;105670;1254;60514;-72
2023/02/16 03:05:29;;;;;;;15.00;8.20;;;;;;;-4.18;67.48;101308.02;105530;1259;65603;-70
2023/02/16 03:08:05;;;;;;;16.20;7.60;;;;;;;-4.24;67.40;101304.61;105350;1254;60381;-70
2023/02/16 03:13:32;;;;;;;15.70;6.90;;;;;;;-4.35;67.45;101298.62;105495;1256;67059;-71
2023/02/16 03:16:11;;;;;;;12.50;6.10;;;;;;;-4.40;67.41;101298.13;105564;1260;60371;-71
2023/02/16 03:29:48;;;;;;;10.30;4.60;;;;;;;-4.67;67.38;101299.06;105524;1254;60539;-71
2023/02/16 03:32:16;;;;;;;8.90;4.00;;;;;;;-4.70;67.44;101295.64;105640;1257;65578;-71
2023/02/16 03:34:43;;;;;;;7.40;4.20;;;;;;;-4.72;67.57;101294.79;105588;1254;60328;-70
2023/02/16 03:37:11;;;;;;;7.70;4.30;;;;;;;-4.76;67.45;101292.55;105636;1252;60530;-70
2023/02/16 03:42:24;;;;;;;7.10;3.90;;;;;;;-4.80;67.70;101293.09;105519;1254;60651;-70
2023/02/16 03:44:56;;;;;;;7.70;4.00;;;;;;;-4.79;67.94;101293.94;105718;1253;65639;-71
2023/02/16 03:47:23;;;;;;;18.80;9.90;;;;;;;-4.78;67.97;101291.02;105608;1257;60332;-70
2023/02/16 03:49:50;;;;;;;27.80;14.30;;;;;;;-4.77;67.93;101291.02;105645;1254;60453;-69
2023/02/16 03:52:17;;;;;;;29.70;14.60;;;;;;;-4.76;68.03;101291.01;105646;1257;66342;-71
2023/02/16 03:54:44;;;;;;;28.80;13.50;;;;;;;-4.78;67.90;101293.08;105514;1253;60546;-71
2023/02/16 03:57:11;;;;;;;20.20;10.10;;;;;;;-4.81;67.94;101289.83;105740;1255;64232;-70
2023/02/16 03:59:38;;;;;;;16.40;7.20;;;;;;;-4.84;67.88;101292.73;105664;1254;60334;-69
2023/02/16 04:02:05;;;;;;;12.60;5.90;;;;;;;-4.88;67.85;101290.86;105651;1255;60463;-69
2023/02/16 04:04:31;;;;;;;10.40;4.80;;;;;;;-4.92;67.81;101291.04;105616;1255;66588;-69
2023/02/16 04:06:59;;;;;;;7.30;3.90;;;;;;;-4.96;67.87;101292.07;105609;1254;60542;-70
2023/02/16 04:09:26;;;;;;;9.10;4.20;;;;;;;-5.00;67.85;101296.20;105505;1254;65362;-69
2023/02/16 04:14:38;;;;;;;8.60;4.00;;;;;;;-5.10;67.81;101301.38;105664;1253;60419;-70
2023/02/16 04:17:10;;;;;;;8.50;3.60;;;;;;;-5.15;67.82;101303.42;105260;1260;66810;-70
2023/02/16 04:19:37;;;;;;;7.80;3.80;;;;;;;-5.20;67.84;101305.83;105627;1254;60541;-71
2023/02/16 04:22:04;;;;;;;7.30;4.10;;;;;;;-5.23;67.89;101310.45;105783;1256;65595;-73
2023/02/16 04:24:31;;;;;;;6.40;4.00;;;;;;;-5.23;68.05;101309.59;105806;1253;60459;-73
2023/02/16 04:26:57;;;;;;;13.50;9.80;;;;;;;-5.24;68.08;101304.61;105800;1254;60427;-71
2023/02/16 04:29:24;;;;;;;11.10;6.70;;;;;;;-5.24;68.18;101300.33;105853;1254;66519;-71
2023/02/16 04:31:52;;;;;;;11.00;6.60;;;;;;;-5.23;68.36;101298.77;105744;1254;60418;-71
2023/02/16 04:34:19;;;;;;;15.10;7.40;;;;;;;-5.23;68.39;101295.86;105898;1257;65373;-71
2023/02/16 04:36:46;;;;;;;14.80;7.00;;;;;;;-5.22;68.42;101291.39;105510;1255;60384;-71
2023/02/16 04:39:14;;;;;;;20.30;9.40;;;;;;;-5.21;68.59;101293.30;105677;1254;60416;-71
2023/02/16 04:41:41;;;;;;;33.10;11.90;;;;;;;-5.19;68.63;101294.16;105317;1259;66751;-72
2023/02/16 04:44:08;;;;;;;30.60;10.90;;;;;;;-5.16;68.63;101291.06;105622;1254;60447;-70
2023/02/16 04:46:35;;;;;;;29.20;10.00;;;;;;;-5.14;68.74;101290.54;105478;1259;65240;-74
2023/02/16 04:49:04;;;;;;;30.50;11.70;;;;;;;-5.14;68.70;101293.97;106033;1254;60468;-71
2023/02/16 04:51:32;;;;;;;28.20;11.40;;;;;;;-5.17;68.54;101293.13;105977;1254;60476;-72
2023/02/16 04:54:00;;;;;;;31.40;11.50;;;;;;;-5.22;68.50;101294.67;105970;1256;66436;-71
2023/02/16 04:56:27;;;;;;;32.00;11.20;;;;;;;-5.27;68.49;101293.64;105836;1254;60458;-72
2023/02/16 04:58:54;;;;;;;27.10;9.80;;;;;;;-5.29;68.55;101294.66;105731;1254;65326;-72
2023/02/16 05:01:22;;;;;;;27.50;10.10;;;;;;;-5.32;68.49;101291.23;105935;1254;60441;-72
2023/02/16 05:03:49;;;;;;;24.40;9.50;;;;;;;-5.33;68.58;101287.63;105880;1253;60402;-72
2023/02/16 05:06:16;;;;;;;29.90;10.20;;;;;;;-5.34;68.57;101290.71;105566;1254;66584;-72
2023/02/16 05:08:43;;;;;;;25.80;9.80;;;;;;;-5.36;68.54;101290.71;105799;1254;60460;-72
2023/02/16 05:16:44;;;;;;;32.50;12.80;;;;;;;-5.39;68.59;101290.38;105876;1254;60409;-73
2023/02/16 05:19:14;;;;;;;49.80;20.70;;;;;;;-5.38;68.68;101294.84;105650;1259;66728;-73
2023/02/16 05:21:41;;;;;;;52.30;20.40;;;;;;;-5.35;68.75;101296.55;105864;1251;60454;-73
2023/02/16 05:24:09;;;;;;;47.30;20.50;;;;;;;-5.31;68.83;101295.00;105809;1254;66055;-72
2023/02/16 05:26:38;;;;;;;44.60;18.60;;;;;;;-5.29;68.72;101296.39;105643;1254;60638;-69
2023/02/16 05:29:05;;;;;;;38.60;15.50;;;;;;;-5.28;68.81;101295.36;105789;1253;60341;-72
2023/02/16 05:31:36;;;;;;;33.60;13.90;;;;;;;-5.28;68.83;101295.35;106034;1253;66876;-73
2023/02/16 05:34:03;;;;;;;30.00;12.10;;;;;;;-5.26;69.00;101298.78;105938;1252;60454;-72
2023/02/16 05:36:29;;;;;;;24.80;11.50;;;;;;;-5.22;69.10;101301.02;105960;1254;65511;-70
2023/02/16 05:38:56;;;;;;;25.90;11.40;;;;;;;-5.17;69.21;101299.30;105620;1252;60434;-71
2023/02/16 05:41:23;;;;;;;29.40;13.60;;;;;;;-5.11;69.26;101301.20;105562;1253;60530;-71
2023/02/16 05:43:54;;;;;;;29.30;12.70;;;;;;;-5.02;69.42;101303.41;105795;1257;75375;-71
2023/02/16 05:46:22;;;;;;;35.70;15.20;;;;;;;-4.96;69.48;101301.17;105719;1257;60957;-70
2023/02/16 05:48:49;;;;;;;40.80;16.10;;;;;;;-4.88;69.59;101306.48;105646;1257;65626;-72
2023/02/16 05:51:16;;;;;;;45.10;19.90;;;;;;;-4.81;69.78;101307.69;105658;1254;60424;-71
2023/02/16 05:53:43;;;;;;;50.90;21.50;;;;;;;-4.73;69.96;101308.01;105695;1253;60409;-73
2023/02/16 05:56:11;;;;;;;58.80;22.40;;;;;;;-4.66;70.11;101305.08;105782;1258;66695;-74
2023/02/16 05:58:38;;;;;;;48.50;21.30;;;;;;;-4.57;70.35;101297.33;105802;1254;60575;-74
2023/02/16 06:01:05;;;;;;;54.80;23.00;;;;;;;-4.46;70.57;101300.39;105983;1254;65865;-74
2023/02/16 06:03:34;;;;;;;49.50;23.00;;;;;;;-4.33;70.71;101300.34;106050;1254;60518;-74
2023/02/16 06:06:02;;;;;;;88.60;38.90;;;;;;;-4.20;70.92;101304.24;106037;1254;60540;-74
2023/02/16 06:08:33;;;;;;;92.40;39.80;;;;;;;-4.06;71.07;101303.66;105781;1256;66749;-72
2023/02/16 06:11:05;;;;;;;91.10;42.90;;;;;;;-3.92;71.18;101302.05;106023;1254;60536;-72
2023/02/16 06:13:33;;;;;;;81.20;38.00;;;;;;;-3.79;71.36;101301.63;105728;1254;65415;-71
2023/02/16 06:15:59;;;;;;;66.50;32.70;;;;;;;-3.65;71.48;101300.52;105814;1257;60534;-71
2023/02/16 06:18:26;;;;;;;63.70;29.70;;;;;;;-3.53;71.62;101302.49;105950;1252;60443;-70
2023/02/16 06:20:55;;;;;;;58.50;28.20;;;;;;;-3.39;71.70;101298.95;105667;1257;66515;-70
2023/02/16 06:23:22;;;;;;;47.70;23.00;;;;;;;-3.26;71.75;101298.17;105606;1253;60513;-71
2023/02/16 06:25:50;;;;;;;39.80;19.70;;;;;;;-3.12;71.81;101291.84;105842;1254;65181;-71
2023/02/16 06:28:17;;;;;;;33.90;18.20;;;;;;;-3.01;71.84;101290.71;105754;1256;60417;-70
2023/02/16 06:30:44;;;;;;;33.90;17.40;;;;;;;-2.89;71.86;101287.33;105656;1253;60348;-71
2023/02/16 06:33:12;;;;;;;25.50;14.00;;;;;;;-2.76;71.97;101283.41;105912;1256;66686;-71
2023/02/16 06:35:39;;;;;;;24.50;13.10;;;;;;;-2.65;71.99;101283.97;105744;1254;60495;-73
2023/02/16 06:38:07;;;;;;;19.60;11.50;;;;;;;-2.53;71.97;101284.21;105672;1252;65911;-71
2023/02/16 06:40:34;;;;;;;18.60;10.10;;;;;;;-2.42;71.90;101289.25;105640;1257;60445;-74
2023/02/16 06:43:01;;;;;;;20.50;11.60;;;;;;;-2.30;71.92;101287.22;105515;1253;60568;-73
2023/02/16 06:45:28;;;;;;;22.70;12.50;;;;;;;-2.17;71.95;101287.58;106081;1256;66605;-73
2023/02/16 06:47:56;;;;;;;20.60;11.50;;;;;;;-2.04;71.90;101283.77;105979;1253;60549;-73
2023/02/16 06:50:23;;;;;;;16.00;9.10;;;;;;;-1.90;71.85;101286.18;105871;1254;65443;-73
2023/02/16 06:52:50;;;;;;;16.50;9.80;;;;;;;-1.78;71.82;101287.55;105758;1254;60474;-73
2023/02/16 06:55:17;;;;;;;17.10;10.20;;;;;;;-1.66;71.54;101283.60;105890;1252;60530;-72
2023/02/16 06:57:44;;;;;;;16.40;10.00;;;;;;;-1.56;71.43;101286.04;105932;1256;66691;-73
2023/02/16 07:00:12;;;;;;;17.80;9.60;;;;;;;-1.45;71.40;101288.98;106169;1254;60854;-73
2023/02/16 07:02:39;;;;;;;10.90;6.70;;;;;;;-1.36;71.13;101282.95;105765;1252;65803;-73
2023/02/16 07:05:07;;;;;;;15.50;7.20;;;;;;;-1.31;70.67;101277.70;106046;1253;60436;-72
2023/02/16 07:07:33;;;;;;;17.10;7.00;;;;;;;-1.31;70.23;101272.00;106209;1261;60401;-70
2023/02/16 07:10:01;;;;;;;16.60;6.10;;;;;;;-1.31;69.94;101265.96;105983;1253;66492;-71
2023/02/16 07:12:30;;;;;;;18.30;7.50;;;;;;;-1.29;69.67;101265.92;105661;1253;60525;-74
2023/02/16 07:15:03;;;;;;;19.90;10.10;;;;;;;-1.24;69.54;101271.89;105755;1254;65678;-72
2023/02/16 07:17:30;;;;;;;15.90;7.90;;;;;;;-1.19;69.38;101271.45;105646;1257;60974;-74
2023/02/16 07:19:57;;;;;;;30.50;11.70;;;;;;;-1.11;69.44;101266.31;105771;1257;60342;-73
2023/02/16 07:22:28;;;;;;;30.60;12.00;;;;;;;-1.06;69.19;101265.02;105776;1257;66577;-71
2023/02/16 07:24:56;;;;;;;29.00;12.40;;;;;;;-1.02;68.79;101265.46;105989;1254;60527;-73
2023/02/16 07:27:24;;;;;;;38.10;15.50;;;;;;;-0.99;68.51;101266.97;105736;1254;64620;-72
2023/02/16 07:29:50;;;;;;;39.10;15.90;;;;;;;-0.99;68.22;101266.77;105427;1253;60524;-72
2023/02/16 07:32:17;;;;;;;38.40;15.70;;;;;;;-0.97;67.92;101267.45;105610;1254;60572;-71
2023/02/16 07:34:45;;;;;;;35.50;15.50;;;;;;;-0.94;67.74;101261.17;105875;1254;66633;-73
2023/02/16 07:37:12;;;;;;;38.50;15.80;;;;;;;-0.91;67.60;101258.86;105650;1254;60800;-73
2023/02/16 07:39:39;;;;;;;37.70;15.30;;;;;;;-0.90;67.39;101257.98;105656;1256;65603;-73
2023/02/16 07:42:06;;;;;;;29.80;13.50;;;;;;;-0.88;67.26;101256.39;105771;1256;60914;-72
2023/02/16 07:44:34;;;;;;;37.80;17.10;;;;;;;-0.84;67.24;101253.91;105730;1252;60706;-72
2023/02/16 07:47:00;;;;;;;39.90;17.90;;;;;;;-0.78;67.15;101252.39;105794;1256;65696;-74
2023/02/16 07:49:27;;;;;;;49.90;23.90;;;;;;;-0.73;66.90;101248.17;105972;1256;60534;-71
2023/02/16 07:51:54;;;;;;;37.70;18.10;;;;;;;-0.72;66.74;101248.31;105550;1254;64442;-71
2023/02/16 07:54:21;;;;;;;35.90;17.00;;;;;;;-0.69;66.69;101247.20;105833;1253;60536;-71
2023/02/16 07:56:48;;;;;;;38.10;18.20;;;;;;;-0.66;66.53;101252.88;105757;1254;60447;-72
2023/02/16 07:59:16;;;;;;;37.60;16.50;;;;;;;-0.66;66.41;101252.52;105951;1254;66760;-71
2023/02/16 08:01:42;;;;;;;33.60;14.80;;;;;;;-0.65;66.33;101248.01;105665;1257;60482;-71
2023/02/16 08:04:10;;;;;;;28.00;12.80;;;;;;;-0.65;66.15;101247.33;105682;1252;65484;-72
2023/02/16 08:06:37;;;;;;;24.60;11.30;;;;;;;-0.65;66.16;101247.66;105839;1254;60511;-71
2023/02/16 08:09:04;;;;;;;25.90;10.70;;;;;;;-0.66;66.11;101242.48;105685;1254;60883;-73
2023/02/16 08:11:33;;;;;;;23.00;10.60;;;;;;;-0.66;66.04;101239.38;106085;1254;66562;-70
2023/02/16 08:14:00;;;;;;;19.70;8.30;;;;;;;-0.65;65.99;101244.02;105649;1254;60414;-72
2023/02/16 08:16:28;;;;;;;21.30;8.80;;;;;;;-0.64;66.00;101242.98;105953;1256;64530;-70
2023/02/16 08:18:55;;;;;;;25.40;10.00;;;;;;;-0.63;65.99;101236.20;105772;1256;60532;-76
2023/02/16 08:21:24;;;;;;;15.70;8.00;;;;;;;-0.60;65.99;101238.39;105840;1253;60450;-72
2023/02/16 08:23:53;;;;;;;23.50;10.40;;;;;;;-0.56;66.02;101236.26;105706;1258;67069;-73
2023/02/16 08:26:22;;;;;;;21.00;10.90;;;;;;;-0.55;66.09;101236.58;105481;1253;60333;-73
2023/02/16 08:28:50;;;;;;;18.90;9.60;;;;;;;-0.52;66.17;101235.64;105724;1254;65414;-73
2023/02/16 08:31:24;;;;;;;18.40;9.70;;;;;;;-0.47;66.15;101230.70;105948;1257;60540;-73
2023/02/16 08:33:52;;;;;;;21.60;10.30;;;;;;;-0.43;66.21;101230.10;105633;1252;61054;-73
2023/02/16 08:36:22;;;;;;;19.80;9.90;;;;;;;-0.42;66.15;101226.26;105950;1254;65699;-72
2023/02/16 08:38:51;;;;;;;24.20;10.70;;;;;;;-0.40;66.06;101227.27;105739;1257;60499;-74
2023/02/16 08:41:21;;;;;;;23.80;11.10;;;;;;;-0.39;65.94;101230.18;106085;1254;64559;-76
2023/02/16 08:43:48;;;;;;;25.40;11.60;;;;;;;-0.36;65.80;101226.50;105735;1257;60357;-73
2023/02/16 08:46:17;;;;;;;24.50;10.50;;;;;;;-0.33;65.68;101226.24;105788;1252;60433;-73
2023/02/16 08:48:44;;;;;;;22.00;10.00;;;;;;;-0.28;65.64;101230.14;105805;1257;66558;-73
2023/02/16 08:51:16;;;;;;;19.70;9.40;;;;;;;-0.25;65.53;101227.33;105988;1253;60494;-71
2023/02/16 08:53:45;;;;;;;19.40;9.20;;;;;;;-0.21;65.46;101232.58;105750;1256;65375;-73
2023/02/16 08:56:15;;;;;;;15.00;7.50;;;;;;;-0.19;65.19;101234.62;105578;1254;60552;-73
2023/02/16 08:58:43;;;;;;;16.40;7.70;;;;;;;-0.16;65.02;101231.78;106136;1254;60319;-73
2023/02/16 09:01:10;;;;;;;17.70;7.40;;;;;;;-0.11;64.89;101236.33;105873;1254;63935;-72
2023/02/16 09:03:43;;;;;;;16.70;7.80;;;;;;;-0.11;64.68;101236.15;105714;1253;60486;-72
2023/02/16 09:06:12;;;;;;;14.80;7.40;;;;;;;-0.08;64.57;101235.41;105657;1254;65483;-73
2023/02/16 09:08:40;;;;;;;14.30;7.40;;;;;;;-0.06;64.43;101229.66;105860;1254;60489;-72
2023/02/16 09:11:10;;;;;;;15.10;7.60;;;;;;;-0.02;64.35;101228.52;105989;1254;60533;-74
2023/02/16 09:13:46;;;;;;;16.80;6.80;;;;;;;0.02;64.19;101222.91;105842;1253;65507;-75
2023/02/16 09:16:16;;;;;;;13.80;7.10;;;;;;;0.09;64.13;101226.71;105892;1257;60460;-76
2023/02/16 09:18:48;;;;;;;14.90;7.50;;;;;;;0.15;63.83;101221.21;105885;1254;64088;-75
2023/02/16 09:21:20;;;;;;;16.00;7.40;;;;;;;0.20;63.72;101216.25;106254;1253;60364;-77
2023/02/16 09:23:48;;;;;;;13.60;7.30;;;;;;;0.26;63.53;101208.47;107208;1252;59455;-74
2023/02/16 09:26:37;;;;;;;13.50;6.80;;;;;;;0.31;63.40;101204.56;106032;1251;63920;-75
2023/02/16 09:29:04;;;;;;;16.00;8.00;;;;;;;0.32;63.26;101201.93;106035;1254;60475;-78
2023/02/16 09:31:33;;;;;;;15.90;8.00;;;;;;;0.32;63.25;101204.36;105609;1260;64306;-76
2023/02/16 09:34:21;;;;;;;14.60;7.80;;;;;;;0.35;63.26;101203.08;105781;1252;60530;-78
2023/02/16 09:36:48;;;;;;;14.80;7.30;;;;;;;0.39;63.13;101194.15;106453;1252;60562;-70
2023/02/16 09:39:15;;;;;;;20.70;11.20;;;;;;;0.41;62.70;101188.92;105962;1256;66492;-74
2023/02/16 09:41:52;;;;;;;17.30;8.30;;;;;;;0.38;62.53;101191.05;106013;1254;60599;-78
2023/02/16 09:44:43;;;;;;;15.70;7.80;;;;;;;0.36;62.33;101189.71;106323;1252;65425;-78
2023/02/16 09:47:22;;;;;;;15.10;6.60;;;;;;;0.40;62.27;101187.90;106169;1254;60408;-78
2023/02/16 09:49:49;;;;;;;12.40;6.80;;;;;;;0.42;61.82;101186.12;105935;1254;60290;-79
2023/02/16 09:52:22;;;;;;;11.50;6.50;;;;;;;0.43;61.84;101181.75;105900;1252;66868;-78
2023/02/16 09:54:56;;;;;;;13.50;6.50;;;;;;;0.48;61.80;101180.58;106329;1253;60385;-82
2023/02/16 09:57:26;;;;;;;14.90;6.90;;;;;;;0.51;61.61;101176.86;106221;1252;65554;-80
2023/02/16 10:00:07;;;;;;;13.70;6.70;;;;;;;0.55;61.66;101176.24;105984;1254;60741;-79
2023/02/16 10:02:58;;;;;;;14.40;6.60;;;;;;;0.61;61.55;101175.59;105904;1254;60533;-83
2023/02/16 10:05:35;;;;;;;11.40;6.40;;;;;;;0.64;61.42;101171.84;106165;1256;66628;-77
2023/02/16 10:08:41;;;;;;;12.40;6.30;;;;;;;0.68;61.32;101169.17;106072;1257;60414;-79
2023/02/16 10:14:07;;;;;;;16.50;7.00;;;;;;;0.74;61.27;101164.31;105961;1257;60414;-78
2023/02/16 10:16:40;;;;;;;13.20;6.00;;;;;;;0.77;61.30;101166.67;105900;1254;60508;-79
2023/02/16 10:19:22;;;;;;;12.40;6.30;;;;;;;0.78;61.30;101166.13;105899;1254;65614;-77
2023/02/16 10:21:52;;;;;;;13.50;6.50;;;;;;;0.79;61.25;101165.24;105590;1261;69823;-79
2023/02/16 10:24:19;;;;;;;12.90;6.60;;;;;;;0.81;61.40;101166.56;106028;1254;64381;-76
2023/02/16 10:26:49;;;;;;;11.50;6.20;;;;;;;0.86;61.51;101163.31;105833;1257;60471;-72
2023/02/16 10:29:19;;;;;;;13.70;6.60;;;;;;;0.92;61.39;101157.42;105899;1259;60418;-74
2023/02/16 10:32:25;;;;;;;13.10;6.30;;;;;;;0.96;61.40;101152.11;105994;1252;67231;-78
2023/02/16 10:35:14;;;;;;;13.40;6.30;;;;;;;0.97;61.25;101146.88;105964;1253;60342;-77
2023/02/16 10:38:10;;;;;;;9.90;5.80;;;;;;;0.94;61.11;101145.73;106095;1254;65527;-76
2023/02/16 10:40:54;;;;;;;8.60;5.10;;;;;;;0.96;61.16;101142.74;106092;1254;60345;-75
2023/02/16 10:43:46;;;;;;;10.70;5.40;;;;;;;1.02;61.15;101142.07;106035;1254;60418;-77
2023/02/16 10:46:24;;;;;;;12.10;5.50;;;;;;;1.09;60.96;101138.92;105915;1254;66855;-77
2023/02/16 10:48:53;;;;;;;11.60;5.80;;;;;;;1.13;60.90;101133.75;105992;1254;60447;-71
2023/02/16 10:51:20;;;;;;;15.70;6.30;;;;;;;1.19;60.82;101134.48;105922;1257;64503;-74
2023/02/16 10:53:52;;;;;;;12.80;5.40;;;;;;;1.23;60.61;101133.85;105877;1253;60551;-74
2023/02/16 10:56:43;;;;;;;11.00;5.10;;;;;;;1.24;60.28;101130.86;105874;1259;60441;-71
2023/02/16 10:59:15;;;;;;;7.10;4.10;;;;;;;1.24;60.08;101126.69;105919;1257;66593;-72
2023/02/16 11:01:44;;;;;;;9.30;5.20;;;;;;;1.29;60.02;101129.52;106193;1256;60430;-71
2023/02/16 11:04:36;;;;;;;10.50;5.50;;;;;;;1.32;59.91;101131.14;106032;1259;65736;-70
2023/02/16 11:07:12;;;;;;;10.20;5.50;;;;;;;1.35;59.73;101124.13;105976;1252;60437;-70
2023/02/16 11:09:39;;;;;;;13.70;5.90;;;;;;;1.38;59.60;101120.58;105794;1257;60325;-70
2023/02/16 11:12:14;;;;;;;10.80;5.80;;;;;;;1.40;59.63;101118.73;105985;1256;66690;-71
2023/02/16 11:14:47;;;;;;;9.90;5.40;;;;;;;1.43;59.47;101116.91;105848;1258;60568;-70
2023/02/16 11:17:19;;;;;;;10.10;5.10;;;;;;;1.47;59.68;101115.61;106083;1254;63446;-71
2023/02/16 11:19:49;;;;;;;9.80;5.40;;;;;;;1.51;59.61;101111.84;106119;1257;59244;-69
2023/02/16 11:22:36;;;;;;;10.90;5.20;;;;;;;1.52;59.47;101105.55;106084;1259;60428;-70
2023/02/16 11:25:20;;;;;;;14.10;7.20;;;;;;;1.53;59.43;101103.77;106010;1256;66582;-69
2023/02/16 11:27:55;;;;;;;11.40;6.10;;;;;;;1.54;59.33;101103.05;106364;1255;60454;-71
2023/02/16 11:30:31;;;;;;;19.10;9.80;;;;;;;1.55;59.47;101099.06;105926;1259;64446;-70
2023/02/16 11:33:00;;;;;;;14.30;6.90;;;;;;;1.56;59.44;101098.50;106153;1254;60524;-68
2023/02/16 11:35:30;;;;;;;16.00;6.90;;;;;;;1.57;59.37;101089.80;105590;1258;60453;-69
2023/02/16 11:37:57;;;;;;;13.50;7.00;;;;;;;1.57;59.53;101088.57;105764;1254;65703;-69
2023/02/16 11:40:29;;;;;;;14.00;7.20;;;;;;;1.60;59.44;101086.93;105591;1259;60582;-71
2023/02/16 11:42:57;;;;;;;14.60;6.80;;;;;;;1.64;59.52;101085.23;106658;1254;64570;-70
2023/02/16 11:45:29;;;;;;;12.30;6.30;;;;;;;1.68;59.40;101080.92;106251;1258;60284;-70
2023/02/16 11:48:10;;;;;;;10.90;5.70;;;;;;;1.70;59.22;101076.52;105718;1254;60485;-71
2023/02/16 11:50:38;;;;;;;14.30;8.00;;;;;;;1.70;59.07;101075.48;105847;1259;66738;-70
2023/02/16 11:53:08;;;;;;;10.90;5.90;;;;;;;1.69;58.88;101073.95;105818;1253;61223;-70
2023/02/16 11:55:38;;;;;;;11.60;6.20;;;;;;;1.67;58.92;101068.30;105810;1259;65233;-69
2023/02/16 11:58:12;;;;;;;13.80;6.50;;;;;;;1.65;59.03;101066.27;105800;1254;60486;-69
2023/02/16 12:00:40;;;;;;;10.30;5.80;;;;;;;1.64;59.13;101062.48;105766;1259;60383;-69
2023/02/16 12:03:18;;;;;;;13.10;6.60;;;;;;;1.63;59.19;101055.02;105763;1261;66504;-70
2023/02/16 12:06:06;;;;;;;11.80;6.30;;;;;;;1.63;59.16;101053.14;105777;1254;60587;-70
2023/02/16 12:08:42;;;;;;;16.60;8.60;;;;;;;1.64;59.28;101052.41;105751;1258;65392;-70
2023/02/16 12:11:25;;;;;;;16.10;8.90;;;;;;;1.66;59.39;101052.52;105537;1254;60552;-70
2023/02/16 12:14:28;;;;;;;10.60;5.50;;;;;;;1.70;59.44;101047.69;105594;1254;60902;-70
2023/02/16 12:17:03;;;;;;;11.90;5.60;;;;;;;1.74;59.30;101037.52;105928;1252;66475;-70
2023/02/16 12:19:39;;;;;;;9.60;4.70;;;;;;;1.76;59.13;101032.08;105714;1258;60635;-70
2023/02/16 12:22:21;;;;;;;8.60;5.00;;;;;;;1.78;59.16;101030.63;105414;1256;65599;-71
2023/02/16 12:25:03;;;;;;;9.50;4.80;;;;;;;1.79;58.91;101026.77;105762;1254;60655;-71